Flight Track Log - Related Links

Times and Time Zones

All times are in EDT time to prevent confusion due to time zone crossing. See the TAM3407 flight status page for this flight to view local times or setup timezone preferences in your user account.

Time Position Orientation Groundspeed Altitude Reporting Facility
EDT Latitude Longitude Course Direction KTS MPH feet Rate Location/Type
Fri 02:01:17 AM -1.3840 -48.4810 225° Southwest 92 106  Level FlightAware ADS-B
Fri 02:01:38 AM -1.3760 -48.4730 45° Northeast 155 178 1,565 Level FlightAware ADS-B
Fri 02:02:03 AM -1.3640 -48.4600 47° Northeast 150 173 1,200 2,550 Climbing FlightAware ADS-B
Fri 02:02:18 AM -1.3560 -48.4500 51° Northeast 158 182 1,700 2,286 Climbing FlightAware ADS-B
Fri 02:02:24 AM -1.3550 -48.4460 76° East 157 181 2,000 2,364 Climbing FlightAware ADS-B
Fri 02:02:51 AM -1.3650 -48.4310 124° Southeast 181 208 3,000 2,200 Climbing FlightAware ADS-B
Fri 02:02:54 AM -1.3680 -48.4300 162° South 192 221 3,100 2,250 Climbing FlightAware ADS-B
Fri 02:02:59 AM -1.3760 -48.4290 173° South 201 231 3,300 1,400 Climbing FlightAware ADS-B
Fri 02:03:24 AM -1.4000 -48.4260 173° South 229 264 3,800 1,200 Climbing FlightAware ADS-B
Fri 02:03:34 AM -1.4090 -48.4230 162° South 239 275 4,000 2,057 Climbing FlightAware ADS-B
Fri 02:03:59 AM -1.4380 -48.4140 163° South 265 305 5,000 2,824 Climbing FlightAware ADS-B
Fri 02:04:25 AM -1.4720 -48.4050 165° South 267 307 6,400 3,000 Climbing FlightAware ADS-B
Fri 02:04:47 AM -1.4990 -48.3980 165° South 274 315 7,400 2,571 Climbing FlightAware ADS-B
Fri 02:05:07 AM -1.5240 -48.3930 169° South 284 327 8,200 2,488 Climbing FlightAware ADS-B
Fri 02:05:28 AM -1.5500 -48.3870 167° South 292 336 9,100 2,429 Climbing FlightAware ADS-B
Fri 02:05:49 AM -1.5750 -48.3810 167° South 295 339 9,900 2,353 Climbing FlightAware ADS-B
Fri 02:06:19 AM -1.6170 -48.3710 167° South 312 359 11,100 2,029 Climbing FlightAware ADS-B
Fri 02:06:57 AM -1.6740 -48.3580 167° South 336 387 12,200 1,769 Climbing FlightAware ADS-B
Fri 02:07:37 AM -1.7350 -48.3440 167° South 355 409 13,400 1,865 Climbing FlightAware ADS-B
Fri 02:08:11 AM -1.7890 -48.3310 166° South 365 420 14,500 2,344 Climbing FlightAware ADS-B
Fri 02:08:41 AM -1.8460 -48.3180 167° South 367 422 15,900 2,273 Climbing FlightAware ADS-B
Fri 02:09:17 AM -1.9030 -48.3040 166° South 373 429 17,000 1,890 Climbing FlightAware ADS-B
Fri 02:09:54 AM -1.9670 -48.2890 167° South 378 435 18,200 1,726 Climbing FlightAware ADS-B
Fri 02:10:30 AM -2.0310 -48.2740 167° South 392 451 19,100 1,859 Climbing FlightAware ADS-B
Fri 02:11:05 AM -2.0900 -48.2600 167° South 384 442 20,400 1,714 Climbing FlightAware ADS-B
Fri 02:11:54 AM -2.1780 -48.2390 167° South 398 458 21,500 1,373 Climbing FlightAware ADS-B
Fri 02:12:28 AM -2.2410 -48.2250 167° South 403 464 22,300 1,352 Climbing FlightAware ADS-B
Fri 02:13:05 AM -2.3060 -48.2090 166° South 409 471 23,100 1,479 Climbing FlightAware ADS-B
Fri 02:13:41 AM -2.3740 -48.1940 168° South 412 474 24,100 1,522 Climbing FlightAware ADS-B
Fri 02:14:12 AM -2.4320 -48.1800 166° South 416 479 24,800 1,182 Climbing FlightAware ADS-B
Fri 02:14:47 AM -2.4960 -48.1650 167° South 425 489 25,400 1,200 Climbing FlightAware ADS-B
Fri 02:15:27 AM -2.5780 -48.1460 167° South 428 493 26,300 1,154 Climbing FlightAware ADS-B
Fri 02:16:05 AM -2.6520 -48.1280 166° South 433 498 26,900 973 Climbing FlightAware ADS-B
Fri 02:16:41 AM -2.7220 -48.1120 167° South 439 505 27,500 986 Climbing FlightAware ADS-B
Fri 02:17:18 AM -2.7950 -48.0940 166° South 444 511 28,100 971 Climbing FlightAware ADS-B
Fri 02:17:49 AM -2.8570 -48.0800 167° South 448 516 28,600 1,059 Climbing FlightAware ADS-B
Fri 02:18:26 AM -2.9300 -48.0630 167° South 449 517 29,300 1,120 Climbing FlightAware ADS-B
Fri 02:19:04 AM -3.0080 -48.0440 166° South 451 519 30,000 1,130 Climbing FlightAware ADS-B
Fri 02:19:35 AM -3.0760 -48.0280 167° South 451 519 30,600 1,164 Climbing FlightAware ADS-B
Fri 02:20:11 AM -3.1420 -48.0130 167° South 449 517 31,300 1,167 Climbing FlightAware ADS-B
Fri 02:20:47 AM -3.2200 -47.9940 166° South 449 517 32,000 1,114 Climbing FlightAware ADS-B
Fri 02:21:21 AM -3.2830 -47.9790 167° South 447 514 32,600 1,238 Climbing FlightAware ADS-B
Fri 02:21:50 AM -3.3440 -47.9650 167° South 442 509 33,300 1,250 Climbing FlightAware ADS-B
Fri 02:22:33 AM -3.4330 -47.9440 167° South 441 507 34,100 973 Climbing FlightAware ADS-B
Fri 02:23:04 AM -3.4950 -47.9290 166° South 442 509 34,500 1,013 Climbing FlightAware ADS-B
Fri 02:23:50 AM -3.5850 -47.9080 167° South 439 505 35,400 1,091 Climbing FlightAware ADS-B
Fri 02:24:21 AM -3.6400 -47.8950 167° South 435 501 35,900 537 Climbing FlightAware ADS-B
Fri 02:24:57 AM -3.7200 -47.8760 167° South 446 513 36,000 83 Climbing FlightAware ADS-B
Fri 02:25:33 AM -3.7880 -47.8600 167° South 446 513 36,000  Level FlightAware ADS-B
Fri 02:26:24 AM -3.8910 -47.8360 167° South 445 512 36,000  Level FlightAware ADS-B
Fri 02:26:53 AM -3.9480 -47.8230 167° South 444 511 36,000  Level FlightAware ADS-B
Fri 02:27:35 AM -4.0270 -47.8030 166° South 441 507 36,000  Level FlightAware ADS-B
Fri 02:28:20 AM -4.1220 -47.7810 167° South 441 507 36,000  Level FlightAware ADS-B
Fri 02:28:54 AM -4.2290 -47.7560 167° South 440 506 36,000  Level FlightAware ADS-B
Fri 02:29:32 AM -4.2930 -47.7400 166° South 440 506 36,000  Level FlightAware ADS-B
Fri 02:30:05 AM -4.3360 -47.7310 168° South 443 510 36,000  Level FlightAware ADS-B
Fri 02:30:37 AM -4.3850 -47.7190 166° South 443 510 36,000  Level FlightAware ADS-B
Fri 02:31:25 AM -4.4660 -47.6990 166° South 443 510 36,000  Level FlightAware ADS-B
Fri 02:32:00 AM -4.5250 -47.6840 166° South 443 510 36,000  Level FlightAware ADS-B
Fri 02:32:36 AM -4.5860 -47.6690 166° South 443 510 36,000  Level FlightAware ADS-B
Fri 02:33:13 AM -4.6480 -47.6530 166° South 443 510 36,000  Level FlightAware ADS-B
Fri 02:33:49 AM -4.7090 -47.6380 166° South 443 510 36,000  Level FlightAware ADS-B
Fri 02:34:26 AM -4.7720 -47.6220 166° South 443 510 36,000  Level FlightAware ADS-B
Fri 02:35:03 AM -4.8340 -47.6060 166° South 443 510 36,000  Level FlightAware ADS-B
Fri 02:35:39 AM -4.8950 -47.5910 166° South 443 510 36,000  Level FlightAware ADS-B
Fri 02:36:15 AM -4.9560 -47.5760 166° South 443 510 36,000  Level FlightAware ADS-B
Fri 02:36:51 AM -5.0170 -47.5610 166° South 443 510 36,000  Level FlightAware ADS-B
Fri 02:37:27 AM -5.0780 -47.5450 165° South 443 510 36,000  Level FlightAware ADS-B
Fri 02:38:04 AM -5.1400 -47.5300 166° South 443 510 36,000  Level FlightAware ADS-B
Fri 02:38:40 AM -5.2010 -47.5150 166° South 443 510 36,000  Level FlightAware ADS-B
Fri 02:39:17 AM -5.2640 -47.4990 166° South 443 510 36,000  Level FlightAware ADS-B
Fri 02:39:53 AM -5.3250 -47.4840 166° South 443 510 36,000 52 Level FlightAware ADS-B
Fri 02:42:00 AM -5.5446 -47.4340 167° South  Level Estimated
Fri 02:43:00 AM -5.6483 -47.4104 167° South  Level Estimated
Fri 02:44:00 AM -5.7521 -47.3867 167° South  Level Estimated
Fri 02:45:00 AM -5.8558 -47.3630 167° South  Level Estimated
Fri 02:46:00 AM -5.9595 -47.3394 167° South  Level Estimated
Fri 02:47:00 AM -6.0633 -47.3157 167° South  Level Estimated
Fri 02:48:00 AM -6.1670 -47.2920 167° South  Level Estimated
Fri 02:49:00 AM -6.2707 -47.2683 167° South  Level Estimated
Fri 02:50:00 AM -6.3745 -47.2446 167° South  Level Estimated
Fri 02:51:00 AM -6.4782 -47.2209 167° South  Level Estimated
Fri 02:52:00 AM -6.5819 -47.1972 167° South  Level Estimated
Fri 02:53:00 AM -6.6856 -47.1735 167° South  Level Estimated
Fri 02:54:00 AM -6.7894 -47.1497 167° South  Level Estimated
Fri 02:55:00 AM -6.8931 -47.1260 167° South  Level Estimated
Fri 02:56:00 AM -6.9968 -47.1022 167° South  Level Estimated
Fri 02:57:00 AM -7.1005 -47.0784 167° South  Level Estimated
Fri 02:58:00 AM -7.2043 -47.0547 167° South  Level Estimated
Fri 02:59:00 AM -7.3080 -47.0309 167° South  Level Estimated
Fri 03:00:00 AM -7.4117 -47.0071 167° South  Level Estimated
Fri 03:01:00 AM -7.5154 -46.9832 167° South  Level Estimated
Fri 03:02:00 AM -7.6191 -46.9594 167° South  Level Estimated
Fri 03:03:00 AM -7.7229 -46.9356 167° South  Level Estimated
Fri 03:04:00 AM -7.8266 -46.9117 167° South  Level Estimated
Fri 03:05:00 AM -7.9303 -46.8879 167° South  Level Estimated
Fri 03:06:00 AM -8.0340 -46.8640 167° South  Level Estimated
Fri 03:07:00 AM -8.1377 -46.8401 167° South  Level Estimated
Fri 03:08:00 AM -8.2414 -46.8162 167° South  Level Estimated
Fri 03:09:00 AM -8.3451 -46.7923 167° South  Level Estimated
Fri 03:10:00 AM -8.4488 -46.7684 167° South  Level Estimated
Fri 03:11:00 AM -8.5525 -46.7444 167° South  Level Estimated
Fri 03:12:00 AM -8.6562 -46.7205 167° South  Level Estimated
Fri 03:13:00 AM -8.7599 -46.6965 167° South  Level Estimated
Fri 03:14:00 AM -8.8636 -46.6725 167° South  Level Estimated
Fri 03:15:00 AM -8.9673 -46.6485 167° South  Level Estimated
Fri 03:16:00 AM -9.0710 -46.6245 167° South  Level Estimated
Fri 03:17:00 AM -9.1747 -46.6005 167° South  Level Estimated
Fri 03:17:36 AM -10.0190 -46.3990 167° South 434 499 38,000  Level FlightAware ADS-B
Fri 03:18:07 AM -10.0870 -46.3830 167° South 436 502 38,000  Level FlightAware ADS-B
Fri 03:18:47 AM -10.1540 -46.3660 166° South 436 502 38,000  Level FlightAware ADS-B
Fri 03:19:21 AM -10.2110 -46.3520 166° South 436 502 38,000  Level FlightAware ADS-B
Fri 03:19:57 AM -10.2700 -46.3360 165° South 436 502 38,000  Level FlightAware ADS-B
Fri 03:20:33 AM -10.3300 -46.3210 166° South 436 502 38,000  Level FlightAware ADS-B
Fri 03:21:09 AM -10.3900 -46.3060 166° South 436 502 38,000  Level FlightAware ADS-B
Fri 03:21:45 AM -10.4500 -46.2910 166° South 436 502 38,000  Level FlightAware ADS-B
Fri 03:22:21 AM -10.5100 -46.2760 166° South 436 502 38,000  Level FlightAware ADS-B
Fri 03:22:57 AM -10.5700 -46.2600 165° South 436 502 38,000  Level FlightAware ADS-B
Fri 03:23:33 AM -10.6300 -46.2450 166° South 436 502 38,000  Level FlightAware ADS-B
Fri 03:24:10 AM -10.6910 -46.2300 166° South 436 502 38,000  Level FlightAware ADS-B
Fri 03:24:47 AM -10.7530 -46.2140 166° South 436 502 38,000  Level FlightAware ADS-B
Fri 03:25:23 AM -10.8130 -46.1990 166° South 436 502 38,000  Level FlightAware ADS-B
Fri 03:25:59 AM -10.8730 -46.1840 166° South 436 502 38,000  Level FlightAware ADS-B
Fri 03:26:25 AM -10.0870 -46.3830 346° North 38,000  Level FlightAware ADS-B
Fri 03:27:20 AM -11.1700 -46.1260 167° South 434 499 38,000  Level FlightAware ADS-B
Fri 03:27:58 AM -11.2320 -46.1100 166° South 434 499 38,000  Level FlightAware ADS-B
Fri 03:28:34 AM -11.2920 -46.0950 166° South 434 499 38,000  Level FlightAware ADS-B
Fri 03:29:11 AM -11.3530 -46.0790 166° South 434 499 38,000  Level FlightAware ADS-B
Fri 03:29:47 AM -11.4130 -46.0640 166° South 434 499 38,000  Level FlightAware ADS-B
Fri 03:30:24 AM -11.4740 -46.0480 166° South 434 499 38,000  Level FlightAware ADS-B
Fri 03:31:00 AM -11.5340 -46.0330 166° South 434 499 38,000  Level FlightAware ADS-B
Fri 03:31:38 AM -11.5970 -46.0170 166° South 434 499 38,000  Level FlightAware ADS-B
Fri 03:32:12 AM -11.6530 -46.0030 166° South 434 499 38,000  Level FlightAware ADS-B
Fri 03:32:48 AM -11.7130 -45.9880 166° South 434 499 38,000  Level FlightAware ADS-B
Fri 03:33:24 AM -11.7720 -45.9720 165° South 434 499 38,000  Level FlightAware ADS-B
Fri 03:34:01 AM -11.8340 -45.9570 167° South 434 499 38,000  Level FlightAware ADS-B
Fri 03:34:37 AM -11.8930 -45.9420 166° South 434 499 38,000  Level FlightAware ADS-B
Fri 03:35:13 AM -11.9530 -45.9260 165° South 434 499 38,000  Level FlightAware ADS-B
Fri 03:35:49 AM -12.0120 -45.9110 166° South 434 499 38,000  Level FlightAware ADS-B
Fri 03:36:25 AM -12.0720 -45.8960 166° South 434 499 38,000  Level FlightAware ADS-B
Fri 03:37:01 AM -12.1320 -45.8810 166° South 434 499 38,000  Level FlightAware ADS-B
Fri 03:39:00 AM -12.3377 -45.8329 167° South  Level Estimated
Fri 03:40:00 AM -12.4413 -45.8086 167° South  Level Estimated
Fri 03:41:00 AM -12.5450 -45.7842 167° South  Level Estimated
Fri 03:42:00 AM -12.6487 -45.7599 167° South  Level Estimated
Fri 03:43:00 AM -12.7524 -45.7355 167° South  Level Estimated
Fri 03:44:00 AM -12.8561 -45.7112 167° South  Level Estimated
Fri 03:45:00 AM -12.9598 -45.6868 167° South  Level Estimated
Fri 03:46:00 AM -13.0634 -45.6623 167° South  Level Estimated
Fri 03:47:00 AM -13.1671 -45.6379 167° South  Level Estimated
Fri 03:48:00 AM -13.2708 -45.6134 167° South  Level Estimated
Fri 03:49:00 AM -13.3745 -45.5890 167° South  Level Estimated
Fri 03:50:00 AM -13.4781 -45.5644 167° South  Level Estimated
Fri 03:51:00 AM -13.5818 -45.5399 167° South  Level Estimated
Fri 03:52:00 AM -13.6854 -45.5154 167° South  Level Estimated
Fri 03:53:00 AM -13.7891 -45.4908 167° South  Level Estimated
Fri 03:54:00 AM -13.8928 -45.4662 167° South  Level Estimated
Fri 03:54:02 AM -14.2800 -45.3750 167° South 38,000  Level FlightAware ADS-B
Fri 03:54:37 AM -14.3470 -45.3590 167° South 429 494 38,000  Level FlightAware ADS-B
Fri 03:55:12 AM -14.4130 -45.3430 167° South 429 494 38,000  Level FlightAware ADS-B
Fri 03:55:52 AM -14.4840 -45.3250 166° South 429 494 38,000  Level FlightAware ADS-B
Fri 03:56:22 AM -14.5530 -45.3080 167° South 430 495 38,000  Level FlightAware ADS-B
Fri 03:56:57 AM -14.6160 -45.2930 167° South 430 495 38,000  Level FlightAware ADS-B
Fri 03:57:32 AM -14.6850 -45.2760 167° South 431 496 38,000  Level FlightAware ADS-B
Fri 03:58:17 AM -14.7710 -45.2540 166° South 431 496 38,000  Level FlightAware ADS-B
Fri 03:58:52 AM -14.8480 -45.2360 167° South 433 498 38,000  Level FlightAware ADS-B
Fri 03:59:42 AM -14.9420 -45.2130 167° South 435 501 38,000  Level FlightAware ADS-B
Fri 04:00:24 AM -15.0180 -45.1940 166° South 435 501 38,000  Level FlightAware ADS-B
Fri 04:01:07 AM -15.1140 -45.1690 166° South 435 501 38,000  Level FlightAware ADS-B
Fri 04:01:47 AM -15.1910 -45.1490 166° South 435 501 38,000  Level FlightAware ADS-B
Fri 04:02:22 AM -15.2580 -45.1330 167° South 434 499 38,000  Level FlightAware ADS-B
Fri 04:02:57 AM -15.3290 -45.1150 166° South 434 499 38,000  Level FlightAware ADS-B
Fri 04:03:37 AM -15.4060 -45.0970 167° South 435 501 38,000  Level FlightAware ADS-B
Fri 04:04:13 AM -15.4770 -45.0800 167° South 436 502 38,000  Level FlightAware ADS-B
Fri 04:04:43 AM -15.5330 -45.0660 166° South 434 499 38,000  Level FlightAware ADS-B
Fri 04:05:22 AM -15.6060 -45.0490 167° South 433 498 38,000  Level FlightAware ADS-B
Fri 04:06:03 AM -15.6820 -45.0300 166° South 433 498 38,000  Level FlightAware ADS-B
Fri 04:06:39 AM -15.7420 -45.0140 166° South 433 498 38,000  Level FlightAware ADS-B
Fri 04:07:15 AM -15.8010 -44.9990 166° South 433 498 38,000  Level FlightAware ADS-B
Fri 04:07:47 AM -15.6390 -45.0410 346° North 432 497 38,000  Level FlightAware ADS-B
Fri 04:08:24 AM -15.7000 -45.0250 166° South 432 497 38,000  Level FlightAware ADS-B
Fri 04:08:57 AM -16.0260 -44.9450 167° South 432 497 38,000  Level FlightAware ADS-B
Fri 04:09:33 AM -16.1040 -44.9260 167° South 435 501 38,000  Level FlightAware ADS-B
Fri 04:10:12 AM -16.1780 -44.9070 166° South 434 499 38,000  Level FlightAware ADS-B
Fri 04:10:48 AM -16.2510 -44.8900 167° South 432 497 38,000  Level FlightAware ADS-B
Fri 04:11:03 AM -16.2790 -44.8820 165° South 432 497 38,000  Level FlightAware ADS-B
Fri 04:11:57 AM -16.3860 -44.8560 167° South 428 493 38,000  Level FlightAware ADS-B
Fri 04:12:37 AM -16.4630 -44.8370 167° South 427 491 38,000  Level FlightAware ADS-B
Fri 04:13:12 AM -16.5270 -44.8200 166° South 425 489 38,000  Level FlightAware ADS-B
Fri 04:13:48 AM -16.5990 -44.8020 167° South 424 488 38,000  Level FlightAware ADS-B
Fri 04:14:23 AM -16.6630 -44.7870 167° South 421 484 38,000  Level FlightAware ADS-B
Fri 04:15:03 AM -16.7390 -44.7710 169° South 421 484 38,000  Level FlightAware ADS-B
Fri 04:15:32 AM -16.7950 -44.7590 168° South 422 486 38,000  Level FlightAware ADS-B
Fri 04:16:08 AM -16.8610 -44.7450 169° South 423 487 38,000  Level FlightAware ADS-B
Fri 04:16:42 AM -16.9350 -44.7290 168° South 425 489 38,000  Level FlightAware ADS-B
Fri 04:17:27 AM -17.0210 -44.7100 168° South 426 490 38,000  Level FlightAware ADS-B
Fri 04:18:07 AM -17.0980 -44.6930 168° South 427 491 38,000  Level FlightAware ADS-B
Fri 04:18:43 AM -17.1670 -44.6780 168° South 428 493 38,000  Level FlightAware ADS-B
Fri 04:19:18 AM -17.2300 -44.6650 169° South 428 493 38,000  Level FlightAware ADS-B
Fri 04:19:52 AM -17.3020 -44.6490 168° South 430 495 38,000  Level FlightAware ADS-B
Fri 04:20:27 AM -17.3680 -44.6350 169° South 431 496 38,000  Level FlightAware ADS-B
Fri 04:21:02 AM -17.4410 -44.6190 168° South 431 496 38,000  Level FlightAware ADS-B
Fri 04:21:37 AM -17.5080 -44.6040 168° South 431 496 38,000  Level FlightAware ADS-B
Fri 04:22:13 AM -17.5760 -44.5890 168° South 430 495 38,000  Level FlightAware ADS-B
Fri 04:22:52 AM -17.6550 -44.5720 168° South 431 496 38,000  Level FlightAware ADS-B
Fri 04:23:23 AM -17.7140 -44.5590 168° South 431 496 38,000  Level FlightAware ADS-B
Fri 04:23:57 AM -17.7830 -44.5440 168° South 430 495 38,000  Level FlightAware ADS-B
Fri 04:24:33 AM -17.8500 -44.5290 168° South 430 495 38,000  Level FlightAware ADS-B
Fri 04:25:07 AM -17.9200 -44.5140 168° South 429 494 38,000  Level FlightAware ADS-B
Fri 04:25:43 AM -17.9880 -44.4990 168° South 429 494 38,000  Level FlightAware ADS-B
Fri 04:26:18 AM -18.0560 -44.4840 168° South 430 495 38,000  Level FlightAware ADS-B
Fri 04:26:57 AM -18.1310 -44.4670 168° South 430 495 38,000  Level FlightAware ADS-B
Fri 04:27:27 AM -18.1940 -44.4540 169° South 431 496 38,000  Level FlightAware ADS-B
Fri 04:28:02 AM -18.2600 -44.4390 168° South 431 496 38,000  Level FlightAware ADS-B
Fri 04:28:38 AM -18.3300 -44.4240 169° South 431 496 38,000  Level FlightAware ADS-B
Fri 04:29:13 AM -18.3940 -44.4100 168° South 432 497 38,000  Level FlightAware ADS-B
Fri 04:29:48 AM -18.4630 -44.3940 168° South 431 496 38,000  Level FlightAware ADS-B
Fri 04:30:23 AM -18.5340 -44.3790 169° South 431 496 38,000  Level FlightAware ADS-B
Fri 04:30:57 AM -18.6040 -44.3630 168° South 431 496 38,000  Level FlightAware ADS-B
Fri 04:31:33 AM -18.6720 -44.3480 168° South 430 495 38,000  Level FlightAware ADS-B
Fri 04:32:07 AM -18.7400 -44.3330 168° South 429 494 38,000  Level FlightAware ADS-B
Fri 04:32:42 AM -18.8100 -44.3180 169° South 428 493 38,000  Level FlightAware ADS-B
Fri 04:33:19 AM -18.8770 -44.3030 168° South 428 493 38,000  Level FlightAware ADS-B
Fri 04:33:57 AM -18.9550 -44.2850 168° South 428 493 38,000  Level FlightAware ADS-B
Fri 04:34:27 AM -19.0120 -44.2730 169° South 429 494 38,000  Level FlightAware ADS-B
Fri 04:35:02 AM -19.0800 -44.2580 168° South 430 495 38,000  Level FlightAware ADS-B
Fri 04:35:37 AM -19.1490 -44.2420 168° South 430 495 38,000  Level FlightAware ADS-B
Fri 04:36:17 AM -19.2280 -44.2250 169° South 430 495 38,000  Level FlightAware ADS-B
Fri 04:36:48 AM -19.2840 -44.2120 168° South 429 494 38,000  Level FlightAware ADS-B
Fri 04:37:22 AM -19.3530 -44.1970 168° South 429 494 38,000  Level FlightAware ADS-B
Fri 04:38:02 AM -19.4320 -44.1790 168° South 431 496 38,000  Level FlightAware ADS-B
Fri 04:38:32 AM -19.4900 -44.1660 168° South 432 497 38,000  Level FlightAware ADS-B
Fri 04:39:07 AM -19.5580 -44.1510 168° South 433 498 38,000  Level FlightAware ADS-B
Fri 04:39:43 AM -19.6270 -44.1360 168° South 434 499 38,000  Level FlightAware ADS-B
Fri 04:40:22 AM -19.7060 -44.1180 168° South 435 501 38,000  Level FlightAware ADS-B
Fri 04:40:52 AM -19.7640 -44.1050 168° South 435 501 38,000  Level FlightAware ADS-B
Fri 04:41:30 AM -19.8410 -44.0880 168° South 437 503 38,000  Level FlightAware ADS-B
Fri 04:42:06 AM -19.9140 -44.0710 168° South 438 504 38,000  Level FlightAware ADS-B
Fri 04:42:40 AM -19.9780 -44.0610 172° South 433 498 38,000  Level FlightAware ADS-B
Fri 04:43:16 AM -20.0530 -44.0530 174° South 436 502 38,000  Level FlightAware ADS-B
Fri 04:43:48 AM -20.1170 -44.0440 172° South 436 502 38,000  Level FlightAware ADS-B
Fri 04:44:24 AM -20.1880 -44.0340 172° South 436 502 38,000  Level FlightAware ADS-B
Fri 04:45:00 AM -20.2630 -44.0230 172° South 436 502 38,000  Level FlightAware ADS-B
Fri 04:45:34 AM -20.3320 -44.0130 172° South 437 503 38,000  Level FlightAware ADS-B
Fri 04:46:12 AM -20.4070 -44.0020 172° South 439 505 38,000  Level FlightAware ADS-B
Fri 04:46:43 AM -20.4690 -43.9940 173° South 440 506 38,000  Level FlightAware ADS-B
Fri 04:47:20 AM -20.5440 -43.9830 172° South 440 506 38,000  Level FlightAware ADS-B
Fri 04:47:56 AM -20.6180 -43.9720 172° South 438 504 38,000  Level FlightAware ADS-B
Fri 04:48:27 AM -20.6790 -43.9640 173° South 440 506 38,000  Level FlightAware ADS-B
Fri 04:49:02 AM -20.7510 -43.9530 172° South 437 503 38,000  Level FlightAware ADS-B
Fri 04:49:40 AM -20.8270 -43.9430 173° South 439 505 38,000  Level FlightAware ADS-B
Fri 04:50:16 AM -20.9000 -43.9320 172° South 439 505 38,000  Level FlightAware ADS-B
Fri 04:50:48 AM -20.9630 -43.9230 172° South 440 506 38,000 -400 Level FlightAware ADS-B
Fri 04:51:31 AM -21.0510 -43.9100 172° South 440 506 37,500 -1,000 Descending FlightAware ADS-B
Fri 04:52:06 AM -21.1170 -43.9010 173° South 441 507 36,700 -1,970 Descending FlightAware ADS-B
Fri 04:52:38 AM -21.1820 -43.8910 172° South 438 504 35,300 -2,783 Descending FlightAware ADS-B
Fri 04:53:15 AM -21.2520 -43.8810 172° South 442 509 33,500 -3,324 Descending FlightAware ADS-B
Fri 04:53:52 AM -21.3390 -43.8690 173° South 443 510 31,200 -3,091 Descending FlightAware ADS-B
Fri 04:54:21 AM -21.3830 -43.8620 172° South 441 507 30,100 -2,763 Descending FlightAware ADS-B
Fri 04:55:08 AM -21.4840 -43.8470 172° South 435 501 27,700 -3,143 Descending FlightAware ADS-B
Fri 04:55:45 AM -21.5560 -43.8370 173° South 440 506 25,700 -2,630 Descending FlightAware ADS-B
Fri 04:56:21 AM -21.6280 -43.8270 173° South 427 491 24,500 -2,060 Descending FlightAware ADS-B
Fri 04:56:52 AM -21.6840 -43.8190 172° South 418 481 23,400 -2,492 Descending FlightAware ADS-B
Fri 04:57:26 AM -21.7540 -43.8080 172° South 412 474 21,800 -2,435 Descending FlightAware ADS-B
Fri 04:58:01 AM -21.8160 -43.7990 172° South 407 468 20,600 -1,944 Descending FlightAware ADS-B
Fri 04:58:37 AM -21.8810 -43.7900 173° South 394 453 19,500 -2,095 Descending FlightAware ADS-B
Fri 04:59:04 AM -21.9280 -43.7800 169° South 398 458 18,400 -2,462 Descending FlightAware ADS-B
Fri 04:59:16 AM -21.9520 -43.7640 148° Southeast 401 461 17,900 -1,375 Descending FlightAware ADS-B
Fri 04:59:52 AM -21.9990 -43.7250 142° Southeast 384 442 17,300 -904 Descending FlightAware ADS-B
Fri 05:00:29 AM -22.0500 -43.6800 141° Southeast 351 404 16,800 -960 Descending FlightAware ADS-B
Fri 05:01:07 AM -22.1010 -43.6390 143° Southeast 332 382 16,100 -1,233 Descending FlightAware ADS-B
Fri 05:01:42 AM -22.1420 -43.6040 142° Southeast 330 380 15,300 -1,233 Descending FlightAware ADS-B
Fri 05:02:20 AM -22.1840 -43.5680 142° Southeast 317 365 14,600 -1,200 Descending FlightAware ADS-B
Fri 05:02:57 AM -22.2290 -43.5310 143° Southeast 314 361 13,800 -1,280 Descending FlightAware ADS-B
Fri 05:03:35 AM -22.2750 -43.4920 142° Southeast 309 356 13,000 -896 Descending FlightAware ADS-B
Fri 05:04:04 AM -22.2970 -43.4740 143° Southeast 299 344 12,800 -701 Descending FlightAware ADS-B
Fri 05:04:52 AM -22.3520 -43.4270 142° Southeast 278 320 12,100 -1,011 Descending FlightAware ADS-B
Fri 05:05:33 AM -22.3930 -43.3940 143° Southeast 272 313 11,300 -1,231 Descending FlightAware ADS-B
Fri 05:06:10 AM -22.4300 -43.3620 141° Southeast 270 311 10,500 -1,135 Descending FlightAware ADS-B
Fri 05:06:47 AM -22.4650 -43.3320 142° Southeast 260 299 9,900 -1,019 Descending FlightAware ADS-B
Fri 05:07:03 AM -22.4800 -43.3190 141° Southeast 255 293 9,600 -750 Descending FlightAware ADS-B
Fri 05:07:19 AM -22.4950 -43.3070 144° Southeast 254 292 9,500 -439 Descending FlightAware ADS-B
Fri 05:07:44 AM -22.5170 -43.2890 143° Southeast 262 302 9,300 -429 Descending FlightAware ADS-B
Fri 05:08:01 AM -22.5350 -43.2730 141° Southeast 263 303 9,200 -293 Descending FlightAware ADS-B
Fri 05:08:25 AM -22.5510 -43.2490 126° Southeast 263 303 9,100 -878 Descending FlightAware ADS-B
Fri 05:08:42 AM -22.5590 -43.2290 113° Southeast 261 300 8,600 -1,091 Descending FlightAware ADS-B
Fri 05:08:58 AM -22.5670 -43.2110 116° Southeast 257 296 8,500 -450 Descending FlightAware ADS-B
Fri 05:09:22 AM -22.5780 -43.1820 112° Southeast 236 272 8,300 -500 Descending FlightAware ADS-B
Fri 05:09:46 AM -22.5870 -43.1620 116° Southeast 227 261 8,100 -698 Descending FlightAware ADS-B
Fri 05:10:05 AM -22.5990 -43.1320 113° Southeast 211 243 7,800 -947 Descending FlightAware ADS-B
Fri 05:10:24 AM -22.6070 -43.1140 116° Southeast 207 238 7,500 -585 Descending FlightAware ADS-B
Fri 05:10:46 AM -22.6150 -43.0950 115° Southeast 189 217 7,400 -571 Descending FlightAware ADS-B
Fri 05:11:06 AM -22.6230 -43.0770 116° Southeast 183 211 7,100 -964 Descending FlightAware ADS-B
Fri 05:11:42 AM -22.6350 -43.0480 114° Southeast 173 199 6,500 -1,034 Descending FlightAware ADS-B
Fri 05:12:04 AM -22.6420 -43.0310 114° Southeast 174 200 6,100 -947 Descending FlightAware ADS-B
Fri 05:12:20 AM -22.6470 -43.0170 111° Southeast 174 200 5,900 -833 Descending FlightAware ADS-B
Fri 05:12:40 AM -22.6530 -43.0010 112° Southeast 171 197 5,600 -938 Descending FlightAware ADS-B
Fri 05:12:52 AM -22.6560 -42.9930 112° Southeast 169 194 5,400 -1,029 Descending FlightAware ADS-B
Fri 05:13:15 AM -22.6630 -42.9750 113° Southeast 169 194 5,000 -1,091 Descending FlightAware ADS-B
Fri 05:13:36 AM -22.6690 -42.9580 111° Southeast 169 194 4,600 -1,077 Descending FlightAware ADS-B
Fri 05:13:54 AM -22.6750 -42.9440 115° Southeast 165 190 4,300 -1,071 Descending FlightAware ADS-B
Fri 05:14:04 AM -22.6800 -42.9390 137° Southeast 161 185 4,100 -1,667 Descending FlightAware ADS-B
Fri 05:14:12 AM -22.6860 -42.9380 171° South 162 186 3,800 -1,714 Descending FlightAware ADS-B
Fri 05:14:32 AM -22.7000 -42.9460 208° Southwest 172 198 3,300 -1,350 Descending FlightAware ADS-B
Fri 05:14:52 AM -22.7090 -42.9600 235° Southwest 178 205 2,900 -1,350 Descending FlightAware ADS-B
Fri 05:15:12 AM -22.7190 -42.9750 234° Southwest 183 211 2,400 -1,227 Descending FlightAware ADS-B
Fri 05:15:36 AM -22.7310 -42.9930 234° Southwest 186 214 2,000 -833 Descending FlightAware ADS-B
Fri 05:15:48 AM -22.7350 -43.0030 247° West 189 217 1,900 -214 Descending FlightAware ADS-B
Fri 05:16:04 AM -22.7400 -43.0170 249° West 189 217 1,900 -300 Level FlightAware ADS-B
Fri 05:16:28 AM -22.7460 -43.0380 253° West 186 214 1,700 -367 Descending FlightAware ADS-B
Fri 05:16:53 AM -22.7520 -43.0610 254° West 180 207 1,600 -133 Descending FlightAware ADS-B
Fri 05:17:13 AM -22.7560 -43.0760 254° West 159 183 1,600  Level FlightAware ADS-B
Fri 05:17:33 AM -22.7600 -43.0920 255° West 141 162 1,600  Level FlightAware ADS-B
Fri 05:17:52 AM -22.7630 -43.1050 256° West 146 168 1,600  Level FlightAware ADS-B
Fri 05:18:15 AM -22.7670 -43.1190 253° West 134 154 1,600  Level FlightAware ADS-B
Fri 05:18:34 AM -22.7700 -43.1320 256° West 130 150 1,600 -439 Level FlightAware ADS-B
Fri 05:18:56 AM -22.7740 -43.1460 253° West 131 151 1,300 -600 Descending FlightAware ADS-B
Fri 05:19:24 AM -22.7760 -43.1560 258° West 126 145 1,100 -462 Descending FlightAware ADS-B
Fri 05:19:48 AM -22.7800 -43.1710 254° West 126 145 900 -625 Descending FlightAware ADS-B
Fri 05:20:12 AM -22.7840 -43.1860 254° West 128 147 600 -735 Descending FlightAware ADS-B
Fri 05:20:37 AM -22.7880 -43.2010 254° West 128 147 300 -585 Descending FlightAware ADS-B
Fri 05:20:53 AM -22.7900 -43.2100 256° West 127 146 200 -375 Descending FlightAware ADS-B
Fri 05:21:11 AM -22.7950 -43.2270 252° West 128 147 -667 Descending FlightAware ADS-B
Fri 05:21:38 AM -22.7950 -43.2120 90° East 128 147  Level FlightAware ADS-B
Fri 05:21:38 AM -22.7950 -43.2120 137° Southeast 128 147  Level FlightAware ADS-B
Fri 05:21:38 AM -22.7950 -43.2120 245° Southwest 128 147  Level FlightAware ADS-B
Fri 05:21:38 AM -22.7950 -43.2120 245° Southwest 128 147  Level FlightAware ADS-B
Fri 05:24:00 AM -22.8089 -43.2436 245° Southwest  Level Estimated
Fri 05:25:00 AM -22.8089 -43.2436 137° Southeast  Level Estimated
Fri 05:26:00 AM -22.8089 -43.2436 137° Southeast  Level Estimated
Fri 05:29:00 AM -22.8089 -43.2436 245° Southwest  Level Estimated
Fri 05:31:00 AM -22.8089 -43.2436 245° Southwest  Level Estimated
Fri 05:33:00 AM -22.8089 -43.2436 245° Southwest  Level Estimated
Fri 05:34:00 AM -22.8089 -43.2436 137° Southeast  Level Estimated
Fri 05:35:00 AM -22.8089 -43.2436 137° Southeast  Level Estimated
Fri 05:36:00 AM -22.8089 -43.2436 137° Southeast  Level Estimated
Fri 05:37:00 AM -22.8089 -43.2436 137° Southeast  Level Estimated
Fri 05:38:00 AM -22.8089 -43.2436 137° Southeast  Level Estimated
Fri 05:39:00 AM -22.8089 -43.2436 137° Southeast  Level Estimated
Fri 05:40:00 AM -22.8089 -43.2436 137° Southeast  Level Estimated
Fri 05:41:00 AM -22.8089 -43.2436 137° Southeast  Level Estimated
Fri 05:42:00 AM -22.8089 -43.2436 137° Southeast  Level Estimated
Fri 05:43:00 AM -22.8089 -43.2436 137° Southeast  Level Estimated
Fri 05:44:00 AM -22.8089 -43.2436 137° Southeast  Level Estimated

Login

Don't have an account? Register now (free) for customized features, flight alerts, and more!